Time;durP1;ratioP1;P1;durP2;ratioP2;P2;SDS_P1;SDS_P2;PMS_P1;PMS_P2;Temp;Humidity;BMP_temperature;BMP_pressure;BME280_temperature;BME280_humidity;BME280_pressure;Samples;Min_cycle;Max_cycle;Signal;HPM_P1;HPM_P2
2024/01/28 00:02:15;;;;;;;0.85;0.85;;;2.50;99.90;;;;;;5057578;28;20265;-65
2024/01/28 00:04:41;;;;;;;0.70;0.70;;;2.50;99.90;;;;;;5057851;28;20177;-65
2024/01/28 00:07:06;;;;;;;0.90;0.90;;;2.50;99.90;;;;;;5057958;28;20653;-66
2024/01/28 00:09:32;;;;;;;0.80;0.80;;;2.50;99.90;;;;;;5057885;28;20177;-65
2024/01/28 00:11:58;;;;;;;2.20;1.00;;;2.90;99.90;;;;;;5057521;28;20186;-66
2024/01/28 00:14:23;;;;;;;0.90;0.90;;;2.30;99.90;;;;;;5057863;28;20170;-65
2024/01/28 00:16:49;;;;;;;0.60;0.60;;;2.50;99.90;;;;;;5057820;28;20169;-65
2024/01/28 00:19:15;;;;;;;0.98;0.88;;;2.60;99.90;;;;;;5057758;28;20260;-65
2024/01/28 00:21:41;;;;;;;0.90;0.90;;;2.70;99.90;;;;;;5057630;28;20715;-66
2024/01/28 00:24:07;;;;;;;0.77;0.77;;;2.70;99.90;;;;;;5057647;28;20196;-65
2024/01/28 00:26:42;;;;;;;0.90;0.90;;;2.70;99.90;;;;;;5057564;28;20198;-65
2024/01/28 00:29:08;;;;;;;1.75;0.50;;;2.80;99.90;;;;;;5057961;28;20660;-65
2024/01/28 00:31:34;;;;;;;0.40;0.40;;;2.30;99.90;;;;;;5057471;28;20189;-65
2024/01/28 00:34:00;;;;;;;0.70;0.70;;;2.40;99.90;;;;;;5059144;28;20211;-65
2024/01/28 00:36:26;;;;;;;1.60;1.23;;;2.60;99.90;;;;;;5057704;28;20170;-65
2024/01/28 00:38:52;;;;;;;0.70;0.50;;;2.70;99.90;;;;;;5057624;28;20186;-65
2024/01/28 00:41:29;;;;;;;0.98;0.75;;;2.50;99.90;;;;;;5056331;28;20239;-65
2024/01/28 00:43:56;;;;;;;0.77;0.77;;;2.50;99.90;;;;;;5057688;28;20560;-65
2024/01/28 00:46:22;;;;;;;0.70;0.60;;;2.50;99.90;;;;;;5056102;28;20217;-65
2024/01/28 00:48:48;;;;;;;1.97;0.80;;;2.50;99.90;;;;;;5057499;28;20174;-66
2024/01/28 00:51:14;;;;;;;0.70;0.70;;;2.40;99.90;;;;;;5057229;28;20223;-65
2024/01/28 00:53:41;;;;;;;0.43;0.43;;;2.60;99.90;;;;;;5057287;28;20211;-65
2024/01/28 00:56:07;;;;;;;0.85;0.75;;;2.50;99.90;;;;;;5057403;28;20190;-66
2024/01/28 00:58:33;;;;;;;0.50;0.50;;;2.30;99.90;;;;;;5057468;28;20509;-65
2024/01/28 01:00:58;;;;;;;0.60;0.60;;;2.70;99.90;;;;;;5055118;28;20493;-66
2024/01/28 01:03:24;;;;;;;0.50;0.50;;;2.40;99.90;;;;;;5054074;28;20595;-66
2024/01/28 01:05:50;;;;;;;0.60;0.50;;;2.50;99.90;;;;;;5052882;28;20198;-65
2024/01/28 01:08:16;;;;;;;0.60;0.60;;;2.70;99.90;;;;;;5054147;28;20198;-65
2024/01/28 01:10:42;;;;;;;0.52;0.52;;;2.40;99.90;;;;;;5054016;28;20249;-66
2024/01/28 01:13:07;;;;;;;0.50;0.50;;;2.60;99.90;;;;;;5053905;28;20269;-65
2024/01/28 01:15:33;;;;;;;0.50;0.40;;;2.60;99.90;;;;;;5054038;28;20992;-65
2024/01/28 01:17:59;;;;;;;0.70;0.60;;;2.70;99.90;;;;;;5054046;28;20196;-65
2024/01/28 01:20:24;;;;;;;0.50;0.50;;;2.60;99.90;;;;;;5053873;28;20189;-66
2024/01/28 01:22:50;;;;;;;0.40;0.40;;;2.60;99.90;;;;;;5053596;28;20456;-65
2024/01/28 01:25:16;;;;;;;1.17;0.93;;;2.30;99.90;;;;;;5053780;28;20549;-65
2024/01/28 01:27:42;;;;;;;0.40;0.40;;;2.30;99.90;;;;;;5053800;28;20404;-65
2024/01/28 01:30:09;;;;;;;0.40;0.40;;;2.60;99.90;;;;;;5053649;28;20685;-65
2024/01/28 01:32:40;;;;;;;0.40;0.40;;;2.40;99.90;;;;;;5053399;28;20192;-65
2024/01/28 01:35:09;;;;;;;0.40;0.40;;;2.30;99.90;;;;;;5053731;28;20563;-65
2024/01/28 01:37:37;;;;;;;0.70;0.50;;;2.40;99.90;;;;;;5053528;28;20216;-65
2024/01/28 01:40:04;;;;;;;0.75;0.75;;;2.50;99.90;;;;;;5053506;28;20232;-65
2024/01/28 01:42:30;;;;;;;0.60;0.60;;;2.50;99.90;;;;;;5053186;28;20291;-65
2024/01/28 01:44:56;;;;;;;0.50;0.47;;;2.50;99.90;;;;;;5053409;28;20296;-65
2024/01/28 01:47:22;;;;;;;0.50;0.50;;;2.50;99.90;;;;;;5053552;28;20177;-65
2024/01/28 01:49:48;;;;;;;0.50;0.50;;;2.60;99.90;;;;;;5053496;28;20709;-65
2024/01/28 01:52:16;;;;;;;0.40;0.40;;;2.30;99.90;;;;;;5052887;28;20244;-64
2024/01/28 01:54:46;;;;;;;0.50;0.50;;;2.50;99.90;;;;;;5053420;28;20411;-63
2024/01/28 01:57:12;;;;;;;0.40;0.40;;;2.50;99.90;;;;;;5056491;28;20261;-64
2024/01/28 01:59:39;;;;;;;0.65;0.50;;;2.30;99.90;;;;;;5053467;28;20238;-64
2024/01/28 02:02:09;;;;;;;0.50;0.40;;;2.40;99.90;;;;;;5053012;28;20191;-64
2024/01/28 02:04:36;;;;;;;0.60;0.60;;;2.30;99.90;;;;;;5053220;28;20224;-64
2024/01/28 02:07:01;;;;;;;0.40;0.40;;;2.30;99.90;;;;;;5053078;28;20468;-64
2024/01/28 02:09:27;;;;;;;0.67;0.60;;;2.50;99.90;;;;;;5053075;28;20572;-64
2024/01/28 02:11:53;;;;;;;0.40;0.40;;;2.30;99.90;;;;;;5052865;28;20690;-64
2024/01/28 02:14:23;;;;;;;3.33;0.70;;;2.70;99.90;;;;;;5053021;28;20184;-64
2024/01/28 02:16:48;;;;;;;0.40;0.40;;;2.70;99.90;;;;;;5053055;28;20187;-63
2024/01/28 02:19:17;;;;;;;0.60;0.60;;;2.50;99.90;;;;;;5052842;28;20174;-64
2024/01/28 02:21:43;;;;;;;0.77;0.77;;;2.60;99.90;;;;;;5052622;28;20280;-63
2024/01/28 02:24:09;;;;;;;1.57;0.60;;;2.40;99.90;;;;;;5052843;28;20178;-64
2024/01/28 02:26:35;;;;;;;0.45;0.40;;;2.40;99.90;;;;;;5052709;28;20453;-64
2024/01/28 02:29:00;;;;;;;0.50;0.50;;;2.20;99.90;;;;;;5052677;28;20545;-64
2024/01/28 02:31:26;;;;;;;1.40;1.07;;;2.10;99.90;;;;;;5052469;28;20737;-64
2024/01/28 02:33:52;;;;;;;0.70;0.60;;;2.40;99.90;;;;;;5052406;28;20171;-64
2024/01/28 02:36:17;;;;;;;0.50;0.50;;;2.30;99.90;;;;;;5052680;28;20178;-64
2024/01/28 02:38:43;;;;;;;0.40;0.40;;;2.10;99.90;;;;;;5052454;28;20547;-64
2024/01/28 02:41:09;;;;;;;0.52;0.52;;;2.60;99.90;;;;;;5052260;28;20182;-64
2024/01/28 02:43:35;;;;;;;0.60;0.40;;;2.50;99.90;;;;;;5052319;28;20181;-64
2024/01/28 02:46:00;;;;;;;0.77;0.73;;;2.50;99.90;;;;;;5052287;28;20239;-64
2024/01/28 02:48:26;;;;;;;0.73;0.60;;;2.70;99.90;;;;;;5050987;28;20170;-64
2024/01/28 02:50:52;;;;;;;0.50;0.50;;;2.60;99.90;;;;;;5052134;28;20173;-64
2024/01/28 02:53:17;;;;;;;0.40;0.40;;;2.60;99.90;;;;;;5051891;28;20200;-64
2024/01/28 02:55:43;;;;;;;0.50;0.50;;;2.20;99.90;;;;;;5052250;28;20177;-64
2024/01/28 02:58:08;;;;;;;0.70;0.60;;;2.40;99.90;;;;;;5052124;28;20681;-63
2024/01/28 03:00:36;;;;;;;0.70;0.57;;;2.30;99.90;;;;;;5052407;28;20643;-64
2024/01/28 03:03:07;;;;;;;1.17;1.00;;;2.80;99.90;;;;;;5051724;28;20208;-64
2024/01/28 03:05:33;;;;;;;0.45;0.45;;;2.40;99.90;;;;;;5051926;28;20247;-64
2024/01/28 03:07:58;;;;;;;0.47;0.47;;;2.20;99.90;;;;;;5052105;28;20202;-64
2024/01/28 03:10:24;;;;;;;0.40;0.40;;;2.40;99.90;;;;;;5051972;28;20173;-64
2024/01/28 03:12:49;;;;;;;0.50;0.50;;;2.20;99.90;;;;;;5051575;28;20196;-64
2024/01/28 03:15:19;;;;;;;0.73;0.63;;;2.40;99.90;;;;;;5051858;28;20177;-64
2024/01/28 03:17:46;;;;;;;0.40;0.40;;;2.50;99.90;;;;;;5052343;28;20177;-64
2024/01/28 03:20:11;;;;;;;0.40;0.40;;;2.40;99.80;;;;;;5052343;28;20176;-64
2024/01/28 03:22:37;;;;;;;1.23;0.70;;;2.50;99.90;;;;;;5051550;28;20241;-64
2024/01/28 03:25:04;;;;;;;1.27;0.60;;;2.30;99.90;;;;;;5051203;28;20452;-64
2024/01/28 03:27:29;;;;;;;0.32;0.32;;;2.30;99.90;;;;;;5051705;28;20169;-64
2024/01/28 03:29:55;;;;;;;0.40;0.40;;;2.10;99.90;;;;;;5052087;28;20180;-64
2024/01/28 03:32:21;;;;;;;0.60;0.60;;;2.20;99.90;;;;;;5051286;28;20199;-64
2024/01/28 03:34:46;;;;;;;0.50;0.50;;;2.20;99.90;;;;;;5051639;28;20169;-64
2024/01/28 03:37:12;;;;;;;0.40;0.40;;;2.10;99.90;;;;;;5051618;28;20227;-64
2024/01/28 03:39:38;;;;;;;0.50;0.40;;;2.10;99.90;;;;;;5051485;28;20195;-64
2024/01/28 03:42:03;;;;;;;0.43;0.40;;;2.20;99.90;;;;;;5051066;28;20197;-63
2024/01/28 03:44:29;;;;;;;0.60;0.60;;;2.30;99.90;;;;;;5051395;28;20205;-64
2024/01/28 03:46:55;;;;;;;0.50;0.50;;;2.60;99.90;;;;;;5050285;28;20548;-64
2024/01/28 03:49:20;;;;;;;0.40;0.40;;;2.20;99.90;;;;;;5051455;28;20166;-64
2024/01/28 03:51:46;;;;;;;0.53;0.53;;;2.20;99.90;;;;;;5051178;28;20287;-64
2024/01/28 03:54:12;;;;;;;0.50;0.40;;;2.30;99.90;;;;;;5051344;28;20247;-64
2024/01/28 03:56:40;;;;;;;0.40;0.40;;;2.60;99.90;;;;;;5051398;28;20601;-64
2024/01/28 03:59:06;;;;;;;0.75;0.75;;;2.30;99.90;;;;;;5051352;28;20193;-64
2024/01/28 04:01:33;;;;;;;0.98;0.57;;;2.10;99.90;;;;;;5051086;28;20218;-64
2024/01/28 04:03:59;;;;;;;0.60;0.60;;;2.20;99.90;;;;;;5051174;28;20177;-64
2024/01/28 04:06:25;;;;;;;0.65;0.65;;;2.10;99.90;;;;;;5051197;28;20204;-64
2024/01/28 04:08:55;;;;;;;0.43;0.43;;;2.30;99.80;;;;;;5051444;28;20170;-64
2024/01/28 04:11:27;;;;;;;1.35;0.70;;;2.50;99.50;;;;;;5051221;28;20406;-64
2024/01/28 04:13:56;;;;;;;0.50;0.50;;;2.50;99.40;;;;;;5051113;28;20176;-64
2024/01/28 04:16:22;;;;;;;0.45;0.40;;;2.30;99.40;;;;;;5051193;28;20170;-64
2024/01/28 04:18:49;;;;;;;0.93;0.65;;;2.50;99.40;;;;;;5051025;28;20614;-63
2024/01/28 04:21:14;;;;;;;0.60;0.50;;;2.50;99.10;;;;;;5051050;28;20177;-64
2024/01/28 04:23:40;;;;;;;0.40;0.40;;;2.30;98.60;;;;;;5051055;28;20546;-64
2024/01/28 04:26:06;;;;;;;0.43;0.43;;;2.60;98.70;;;;;;5049676;28;20651;-64
2024/01/28 04:28:32;;;;;;;0.40;0.40;;;2.30;98.80;;;;;;5051111;28;20185;-64
2024/01/28 04:31:01;;;;;;;0.50;0.50;;;2.40;98.90;;;;;;5050899;28;20182;-64
2024/01/28 04:33:26;;;;;;;0.40;0.40;;;2.40;98.40;;;;;;5050728;28;20182;-64
2024/01/28 04:35:52;;;;;;;0.40;0.37;;;2.40;98.40;;;;;;5051081;28;20531;-64
2024/01/28 04:38:18;;;;;;;0.30;0.30;;;2.50;98.60;;;;;;5054933;28;20176;-64
2024/01/28 04:40:44;;;;;;;0.40;0.40;;;2.30;98.60;;;;;;5055767;28;20421;-64
2024/01/28 04:43:09;;;;;;;0.40;0.40;;;2.40;98.90;;;;;;5053463;28;20203;-64
2024/01/28 04:45:36;;;;;;;0.80;0.47;;;2.40;98.80;;;;;;5054520;28;20201;-64
2024/01/28 04:48:01;;;;;;;0.40;0.40;;;2.40;98.40;;;;;;5054492;28;20178;-64
2024/01/28 04:50:27;;;;;;;0.60;0.60;;;2.40;98.10;;;;;;5054486;28;20170;-63
2024/01/28 04:52:53;;;;;;;0.60;0.60;;;2.30;98.40;;;;;;5054104;28;20282;-64
2024/01/28 04:55:18;;;;;;;2.53;0.67;;;2.40;98.60;;;;;;5054453;28;20593;-64
2024/01/28 04:57:44;;;;;;;0.57;0.40;;;2.40;98.70;;;;;;5054487;28;20176;-64
2024/01/28 05:00:10;;;;;;;0.30;0.30;;;2.40;98.10;;;;;;5054380;28;20406;-64
2024/01/28 05:02:37;;;;;;;0.38;0.38;;;2.50;97.70;;;;;;5053956;28;20194;-64
2024/01/28 05:05:03;;;;;;;0.40;0.40;;;2.40;97.70;;;;;;5054237;28;20192;-64
2024/01/28 05:07:29;;;;;;;0.30;0.30;;;2.40;98.00;;;;;;5054218;28;20251;-63
2024/01/28 05:09:55;;;;;;;0.40;0.40;;;2.30;98.10;;;;;;5054047;28;20408;-64
2024/01/28 05:12:20;;;;;;;0.70;0.50;;;2.40;98.30;;;;;;5053920;28;20277;-64
2024/01/28 05:14:46;;;;;;;0.50;0.47;;;2.40;98.60;;;;;;5054238;28;20835;-64
2024/01/28 05:17:12;;;;;;;1.70;0.43;;;2.30;98.50;;;;;;5054003;28;20516;-64
2024/01/28 05:19:38;;;;;;;0.50;0.50;;;2.30;98.40;;;;;;5054032;28;20405;-63
2024/01/28 05:22:06;;;;;;;0.40;0.40;;;2.30;98.40;;;;;;5053632;28;20667;-64
2024/01/28 05:24:32;;;;;;;0.77;0.50;;;2.20;98.40;;;;;;5053918;28;20284;-64
2024/01/28 05:26:58;;;;;;;0.50;0.50;;;2.20;98.80;;;;;;5053839;28;20209;-64
2024/01/28 05:29:23;;;;;;;0.50;0.50;;;2.20;99.30;;;;;;5053761;28;20173;-63
2024/01/28 05:31:51;;;;;;;0.47;0.40;;;2.20;98.90;;;;;;5053643;28;20196;-64
2024/01/28 05:34:17;;;;;;;0.50;0.50;;;2.20;98.70;;;;;;5053794;28;20176;-64
2024/01/28 05:36:50;;;;;;;0.37;0.37;;;2.20;98.80;;;;;;5053826;28;20260;-64
2024/01/28 05:39:16;;;;;;;0.50;0.50;;;2.20;98.50;;;;;;5053665;28;20769;-64
2024/01/28 05:41:43;;;;;;;0.40;0.40;;;2.10;98.40;;;;;;5053451;28;20206;-64
2024/01/28 05:44:08;;;;;;;0.30;0.30;;;2.10;98.80;;;;;;5053436;28;20443;-64
2024/01/28 05:46:34;;;;;;;0.40;0.40;;;2.10;98.50;;;;;;5053324;28;20231;-64
2024/01/28 05:49:00;;;;;;;0.50;0.50;;;2.10;98.60;;;;;;5053367;28;20583;-64
2024/01/28 05:51:27;;;;;;;0.30;0.30;;;2.20;98.50;;;;;;5053385;28;20533;-64
2024/01/28 05:53:54;;;;;;;0.40;0.40;;;2.20;98.50;;;;;;5053174;28;20164;-64
2024/01/28 05:56:20;;;;;;;0.40;0.40;;;2.10;98.40;;;;;;5053388;28;20185;-64
2024/01/28 05:58:45;;;;;;;0.40;0.40;;;2.10;98.30;;;;;;5053309;28;20187;-63
2024/01/28 06:01:12;;;;;;;0.70;0.47;;;2.10;98.30;;;;;;5053038;28;20192;-64
2024/01/28 06:03:38;;;;;;;0.40;0.40;;;2.10;98.20;;;;;;5054108;28;20166;-64
2024/01/28 06:06:04;;;;;;;0.40;0.40;;;2.20;98.30;;;;;;5053153;28;20204;-63
2024/01/28 06:08:30;;;;;;;0.68;0.50;;;2.10;98.10;;;;;;5053260;28;20253;-65
2024/01/28 06:10:56;;;;;;;0.40;0.40;;;2.20;98.10;;;;;;5052995;28;20223;-64
2024/01/28 06:13:22;;;;;;;0.40;0.40;;;2.20;98.00;;;;;;5052731;28;20192;-63
2024/01/28 06:15:47;;;;;;;0.40;0.40;;;2.10;97.80;;;;;;5053226;28;20174;-64
2024/01/28 06:18:13;;;;;;;1.00;0.50;;;2.20;97.70;;;;;;5052952;28;20173;-64
2024/01/28 06:20:38;;;;;;;1.03;0.40;;;2.10;97.60;;;;;;5052802;28;20177;-64
2024/01/28 06:23:04;;;;;;;0.50;0.50;;;2.00;97.70;;;;;;5052539;28;20285;-64
2024/01/28 06:25:30;;;;;;;0.90;0.53;;;2.00;97.90;;;;;;5052309;28;20277;-64
2024/01/28 06:27:55;;;;;;;0.53;0.53;;;2.10;98.10;;;;;;5052682;28;20168;-64
2024/01/28 06:30:21;;;;;;;0.50;0.50;;;2.00;98.30;;;;;;5052563;28;20169;-64
2024/01/28 06:32:47;;;;;;;0.40;0.40;;;2.10;98.10;;;;;;5052361;28;20193;-64
2024/01/28 06:35:12;;;;;;;0.40;0.40;;;2.10;97.90;;;;;;5052581;28;20225;-64
2024/01/28 06:37:39;;;;;;;0.40;0.40;;;2.00;97.70;;;;;;5052462;28;20180;-64
2024/01/28 06:40:06;;;;;;;0.75;0.40;;;2.00;97.70;;;;;;5052497;28;20260;-64
2024/01/28 06:42:32;;;;;;;0.50;0.50;;;2.00;97.80;;;;;;5052249;28;20224;-63
2024/01/28 06:44:59;;;;;;;0.60;0.60;;;2.40;99.90;;;;;;5052664;28;20260;-66
2024/01/28 06:47:25;;;;;;;0.82;0.45;;;3.50;99.90;;;;;;5052616;28;20787;-63
2024/01/28 06:49:51;;;;;;;0.40;0.40;;;4.60;99.90;;;;;;5052398;28;20174;-61
2024/01/28 06:52:20;;;;;;;0.63;0.63;;;5.70;99.90;;;;;;5052368;28;20247;-62
2024/01/28 06:54:45;;;;;;;0.70;0.40;;;6.60;99.90;;;;;;5052398;28;20925;-64
2024/01/28 06:57:11;;;;;;;0.40;0.40;;;7.40;97.80;;;;;;5052248;28;20189;-65
2024/01/28 06:59:36;;;;;;;2.50;0.60;;;8.00;96.60;;;;;;5051441;28;20212;-63
2024/01/28 07:02:02;;;;;;;3.60;0.80;;;8.50;95.20;;;;;;5052038;28;20521;-62
2024/01/28 07:04:28;;;;;;;0.83;0.83;;;9.00;94.40;;;;;;5051758;28;20250;-64
2024/01/28 07:06:53;;;;;;;1.07;1.07;;;9.30;93.70;;;;;;5052059;28;20204;-64
2024/01/28 07:09:19;;;;;;;0.60;0.60;;;9.60;93.60;;;;;;5052098;28;20602;-65
2024/01/28 07:11:44;;;;;;;0.60;0.60;;;9.90;93.40;;;;;;5051893;28;20194;-64
2024/01/28 07:14:10;;;;;;;0.50;0.40;;;10.10;91.20;;;;;;5051879;28;20166;-64
2024/01/28 07:16:36;;;;;;;0.50;0.50;;;9.80;85.30;;;;;;5051933;28;20536;-65
2024/01/28 07:19:02;;;;;;;0.50;0.40;;;9.00;76.50;;;;;;5051845;28;20177;-64
2024/01/28 07:21:27;;;;;;;0.40;0.40;;;7.80;74.80;;;;;;5050726;28;20242;-65
2024/01/28 07:23:53;;;;;;;0.40;0.40;;;6.80;78.00;;;;;;5051635;28;20176;-64
2024/01/28 07:26:19;;;;;;;0.50;0.50;;;6.00;81.30;;;;;;5053631;28;20186;-64
2024/01/28 07:28:44;;;;;;;0.63;0.63;;;5.30;81.20;;;;;;5051684;28;20166;-63
2024/01/28 07:31:10;;;;;;;0.30;0.30;;;4.60;83.90;;;;;;5051718;28;20170;-64
2024/01/28 07:33:36;;;;;;;0.50;0.50;;;4.40;83.90;;;;;;5051792;28;20356;-65
2024/01/28 07:36:01;;;;;;;0.50;0.40;;;4.20;85.20;;;;;;5051784;28;20181;-64
2024/01/28 07:38:28;;;;;;;0.50;0.50;;;3.90;86.60;;;;;;5051484;28;20178;-64
2024/01/28 07:40:54;;;;;;;0.63;0.40;;;3.60;88.20;;;;;;5051259;28;20279;-65
2024/01/28 07:43:19;;;;;;;0.90;0.90;;;3.50;90.10;;;;;;5051388;28;20713;-64
2024/01/28 07:45:45;;;;;;;0.80;0.80;;;3.10;91.10;;;;;;5051449;28;20452;-64
2024/01/28 07:48:11;;;;;;;1.43;1.00;;;3.00;92.00;;;;;;5053719;28;20604;-62
2024/01/28 07:50:36;;;;;;;1.13;0.60;;;3.20;92.40;;;;;;5049567;28;20219;-62
2024/01/28 07:53:02;;;;;;;0.70;0.70;;;3.10;92.50;;;;;;5070418;22;20275;-60
2024/01/28 07:55:29;;;;;;;0.53;0.53;;;2.90;92.60;;;;;;5050460;28;20185;-58
2024/01/28 07:57:55;;;;;;;0.80;0.80;;;2.70;92.90;;;;;;5051218;28;20185;-60
2024/01/28 08:00:21;;;;;;;0.60;0.50;;;2.70;92.70;;;;;;5049686;28;20188;-60
2024/01/28 08:02:46;;;;;;;0.55;0.55;;;2.80;92.80;;;;;;5050960;28;20247;-60
2024/01/28 08:05:12;;;;;;;0.60;0.50;;;3.00;93.50;;;;;;5051101;28;20236;-60
2024/01/28 08:07:37;;;;;;;0.50;0.50;;;3.80;94.00;;;;;;5051171;28;20174;-60
2024/01/28 08:10:03;;;;;;;0.50;0.50;;;5.00;93.40;;;;;;5051571;28;20170;-60
2024/01/28 08:12:29;;;;;;;2.05;1.10;;;6.50;92.30;;;;;;5054913;28;20668;-60
2024/01/28 08:14:55;;;;;;;1.50;1.10;;;8.10;90.00;;;;;;5055093;28;20186;-61
2024/01/28 08:17:20;;;;;;;2.73;2.50;;;9.80;87.10;;;;;;5055265;28;20753;-61
2024/01/28 08:19:46;;;;;;;3.07;2.50;;;11.60;80.00;;;;;;5055263;28;20222;-61
2024/01/28 08:22:12;;;;;;;1.73;1.53;;;13.40;71.50;;;;;;5054929;28;20658;-61
2024/01/28 08:24:38;;;;;;;2.13;1.90;;;15.10;65.40;;;;;;5055240;28;20174;-61
2024/01/28 08:27:04;;;;;;;3.13;2.20;;;16.50;60.50;;;;;;5055180;28;20264;-61
2024/01/28 08:29:30;;;;;;;3.37;2.70;;;17.80;56.70;;;;;;5055121;28;20197;-63
2024/01/28 08:31:57;;;;;;;3.13;2.60;;;18.90;52.90;;;;;;5054736;28;20456;-62
2024/01/28 08:34:24;;;;;;;4.37;3.43;;;19.70;49.90;;;;;;5054096;28;20617;-63
2024/01/28 08:36:50;;;;;;;5.87;4.17;;;20.30;47.10;;;;;;5055031;28;20416;-64
2024/01/28 08:39:15;;;;;;;3.20;2.90;;;20.50;45.90;;;;;;5054954;28;20178;-62
2024/01/28 08:41:41;;;;;;;5.23;4.20;;;20.10;44.90;;;;;;5054738;28;20182;-64
2024/01/28 08:44:07;;;;;;;4.07;3.30;;;19.60;45.10;;;;;;5054295;28;20201;-63
2024/01/28 08:46:40;;;;;;;3.10;2.80;;;18.90;44.30;;;;;;5054174;28;20256;-62
2024/01/28 08:49:24;;;;;;;4.50;3.20;;;18.10;44.50;;;;;;5052371;28;20178;-62
2024/01/28 08:51:50;;;;;;;3.07;2.77;;;17.50;46.20;;;;;;5053778;28;20412;-61
2024/01/28 08:54:16;;;;;;;5.33;4.00;;;17.30;46.50;;;;;;5053341;28;20185;-61
2024/01/28 08:56:42;;;;;;;5.57;5.17;;;17.10;47.00;;;;;;5054214;28;20952;-61
2024/01/28 08:59:08;;;;;;;6.13;5.53;;;16.80;46.30;;;;;;5054235;28;20434;-61
2024/01/28 09:01:35;;;;;;;4.80;3.80;;;16.20;47.50;;;;;;5054140;28;20450;-61
2024/01/28 09:04:10;;;;;;;10.77;7.60;;;15.60;48.50;;;;;;5054193;28;20849;-61
2024/01/28 09:06:35;;;;;;;4.90;4.13;;;15.10;50.10;;;;;;5054382;28;20534;-62
2024/01/28 09:09:07;;;;;;;3.77;2.83;;;14.80;50.80;;;;;;5054270;28;20490;-62
2024/01/28 09:11:33;;;;;;;6.47;5.50;;;14.70;51.30;;;;;;5054045;28;20913;-61
2024/01/28 09:14:01;;;;;;;5.37;4.87;;;14.50;51.40;;;;;;5054174;28;20414;-60
2024/01/28 09:16:26;;;;;;;8.47;6.83;;;14.40;52.60;;;;;;5054178;28;20923;-63
2024/01/28 09:18:52;;;;;;;6.77;4.80;;;14.30;52.50;;;;;;5054119;28;20446;-63
2024/01/28 09:21:18;;;;;;;4.57;4.20;;;14.60;53.00;;;;;;5053750;28;20169;-62
2024/01/28 09:23:43;;;;;;;6.77;6.07;;;15.00;52.10;;;;;;5052922;28;20186;-63
2024/01/28 09:26:09;;;;;;;7.90;7.20;;;15.40;51.00;;;;;;5054059;28;20261;-61
2024/01/28 09:28:35;;;;;;;4.83;3.40;;;15.80;50.30;;;;;;5054222;28;20273;-62
2024/01/28 09:31:00;;;;;;;2.83;2.60;;;16.40;49.20;;;;;;5053949;28;20591;-61
2024/01/28 09:33:26;;;;;;;1.87;1.77;;;17.30;49.10;;;;;;5053510;28;20197;-62
2024/01/28 09:35:52;;;;;;;1.23;1.13;;;18.40;48.50;;;;;;5053758;28;20267;-62
2024/01/28 09:38:21;;;;;;;1.10;1.10;;;19.40;47.20;;;;;;5053568;28;20451;-63
2024/01/28 09:40:47;;;;;;;1.30;1.20;;;20.10;45.70;;;;;;5053315;28;20174;-62
2024/01/28 09:43:29;;;;;;;1.57;1.40;;;20.50;45.40;;;;;;5053707;28;20432;-61
2024/01/28 09:45:55;;;;;;;1.37;1.20;;;20.90;44.80;;;;;;5053723;28;20462;-61
2024/01/28 09:48:21;;;;;;;1.17;1.10;;;21.20;44.70;;;;;;5053510;28;20408;-62
2024/01/28 09:50:47;;;;;;;1.07;1.03;;;21.70;44.50;;;;;;5053417;28;20401;-62
2024/01/28 09:53:13;;;;;;;2.20;1.40;;;22.10;42.70;;;;;;5053343;28;20451;-62
2024/01/28 09:55:42;;;;;;;1.37;1.20;;;22.30;42.30;;;;;;5053715;28;20491;-62
2024/01/28 09:58:09;;;;;;;0.77;0.77;;;22.60;42.30;;;;;;5053464;28;20182;-63
2024/01/28 10:00:37;;;;;;;1.20;0.80;;;23.00;41.40;;;;;;5053401;28;20405;-62
2024/01/28 10:03:03;;;;;;;0.80;0.80;;;23.40;41.00;;;;;;5052822;28;20996;-61
2024/01/28 10:05:29;;;;;;;0.83;0.83;;;23.70;40.70;;;;;;5053280;28;20834;-62
2024/01/28 10:08:03;;;;;;;2.00;1.17;;;24.20;40.40;;;;;;5053327;28;20455;-62
2024/01/28 10:10:32;;;;;;;2.40;1.30;;;24.40;39.50;;;;;;5052966;28;20426;-62
2024/01/28 10:12:57;;;;;;;1.90;1.70;;;24.60;39.10;;;;;;5052015;28;20428;-62
2024/01/28 10:15:25;;;;;;;2.10;1.13;;;24.80;39.40;;;;;;5052648;28;20975;-62
2024/01/28 10:17:51;;;;;;;3.60;2.67;;;24.90;39.60;;;;;;5052955;28;20268;-62
2024/01/28 10:20:24;;;;;;;1.63;1.37;;;25.00;39.20;;;;;;5052752;28;20423;-62
2024/01/28 10:22:52;;;;;;;2.23;2.13;;;25.00;38.70;;;;;;5052913;28;20282;-62
2024/01/28 10:25:19;;;;;;;1.63;1.50;;;24.90;38.30;;;;;;5052990;28;20539;-62
2024/01/28 10:27:46;;;;;;;1.40;1.10;;;24.90;38.50;;;;;;5052954;28;20411;-62
2024/01/28 10:30:13;;;;;;;1.53;1.00;;;24.90;39.90;;;;;;5052510;28;20409;-62
2024/01/28 10:32:39;;;;;;;1.80;1.37;;;24.80;39.30;;;;;;5052131;28;20435;-62
2024/01/28 10:35:08;;;;;;;1.30;0.93;;;24.70;39.30;;;;;;5049553;28;20511;-62
2024/01/28 10:37:35;;;;;;;1.33;1.03;;;24.40;38.20;;;;;;5051167;28;20178;-62
2024/01/28 10:40:06;;;;;;;1.47;1.37;;;24.10;38.00;;;;;;5040096;28;20461;-62
2024/01/28 10:42:38;;;;;;;1.73;1.63;;;23.80;38.90;;;;;;5035066;28;20551;-62
2024/01/28 10:45:07;;;;;;;2.00;1.90;;;23.50;38.90;;;;;;5051933;28;20440;-61
2024/01/28 10:47:35;;;;;;;2.40;2.20;;;23.20;39.30;;;;;;5051908;28;20409;-62
2024/01/28 10:50:07;;;;;;;2.17;1.97;;;22.90;40.40;;;;;;5052285;28;20419;-62
2024/01/28 10:52:35;;;;;;;3.30;3.00;;;22.50;40.60;;;;;;5042889;28;20910;-62
2024/01/28 10:55:01;;;;;;;6.90;2.90;;;22.20;41.30;;;;;;5032258;28;20418;-61
2024/01/28 10:57:28;;;;;;;4.00;2.10;;;22.00;42.00;;;;;;5032380;28;20438;-61
2024/01/28 10:59:54;;;;;;;3.70;2.23;;;21.50;42.70;;;;;;5031691;28;20410;-61
2024/01/28 11:02:21;;;;;;;4.80;3.30;;;20.80;43.70;;;;;;5031792;28;20914;-63
2024/01/28 11:04:48;;;;;;;3.10;2.87;;;20.30;45.40;;;;;;5032483;28;20261;-62
2024/01/28 11:07:19;;;;;;;3.33;3.10;;;19.90;44.50;;;;;;5031828;28;20469;-63
2024/01/28 11:09:45;;;;;;;2.40;2.20;;;19.40;46.40;;;;;;5030846;28;20586;-64
2024/01/28 11:12:12;;;;;;;2.40;1.90;;;19.10;47.10;;;;;;5032006;28;20538;-61
2024/01/28 11:14:38;;;;;;;3.63;2.20;;;18.60;48.10;;;;;;5031591;28;20410;-61
2024/01/28 11:17:11;;;;;;;3.00;1.70;;;18.00;48.60;;;;;;5049237;28;20413;-60
2024/01/28 11:19:36;;;;;;;2.03;1.57;;;16.90;49.10;;;;;;5051855;28;20412;-60
2024/01/28 11:22:03;;;;;;;2.57;1.50;;;16.10;51.80;;;;;;5051566;28;20853;-61
2024/01/28 11:24:28;;;;;;;3.50;3.20;;;15.30;53.70;;;;;;5051308;28;20184;-63
2024/01/28 11:26:58;;;;;;;3.37;2.20;;;14.80;54.00;;;;;;5051831;28;20456;-60
2024/01/28 11:29:33;;;;;;;2.60;1.53;;;14.60;54.90;;;;;;5051921;28;20585;-62
2024/01/28 11:32:04;;;;;;;1.83;1.30;;;14.20;57.80;;;;;;5050819;28;20428;-61
2024/01/28 11:34:30;;;;;;;0.93;0.93;;;13.60;59.80;;;;;;5051168;28;20415;-60
2024/01/28 11:36:58;;;;;;;2.60;2.03;;;13.30;60.90;;;;;;5051031;28;20497;-60
2024/01/28 11:39:40;;;;;;;2.33;2.00;;;12.90;60.50;;;;;;5051669;28;20180;-60
2024/01/28 11:42:06;;;;;;;1.90;1.77;;;12.70;62.20;;;;;;5051439;28;20816;-60
2024/01/28 11:44:33;;;;;;;2.33;1.97;;;12.70;64.70;;;;;;5051290;28;20410;-60
2024/01/28 11:46:59;;;;;;;3.13;1.77;;;12.80;64.80;;;;;;5051369;28;20461;-60
2024/01/28 11:49:24;;;;;;;2.33;1.57;;;12.80;65.80;;;;;;5051474;28;20856;-60
2024/01/28 11:51:50;;;;;;;1.43;1.33;;;12.90;66.30;;;;;;5051256;28;20491;-60
2024/01/28 11:54:15;;;;;;;3.67;1.90;;;12.80;65.40;;;;;;5051468;28;20170;-60
2024/01/28 11:56:41;;;;;;;1.50;1.20;;;12.70;65.00;;;;;;5051684;28;20648;-60
2024/01/28 11:59:07;;;;;;;2.10;1.90;;;12.70;67.60;;;;;;5051527;28;20178;-61
2024/01/28 12:01:32;;;;;;;1.90;1.80;;;12.80;68.40;;;;;;5051351;28;20536;-61
2024/01/28 12:03:58;;;;;;;1.50;1.40;;;12.80;67.00;;;;;;5051107;28;20174;-61
2024/01/28 12:06:27;;;;;;;2.53;2.17;;;12.80;67.90;;;;;;5051376;28;20194;-60
2024/01/28 12:08:53;;;;;;;1.60;1.30;;;12.70;68.10;;;;;;5051554;28;20511;-60
2024/01/28 12:11:24;;;;;;;2.80;1.70;;;12.80;68.30;;;;;;5051316;28;20397;-60
2024/01/28 12:13:50;;;;;;;1.37;1.23;;;12.80;69.40;;;;;;5051092;28;20428;-60
2024/01/28 12:16:22;;;;;;;1.23;1.13;;;12.80;70.60;;;;;;5051330;28;20405;-60
2024/01/28 12:18:48;;;;;;;1.40;1.30;;;12.80;70.90;;;;;;5051558;28;20929;-61
2024/01/28 12:21:24;;;;;;;1.10;1.10;;;12.70;69.60;;;;;;5051318;28;20408;-61
2024/01/28 12:23:59;;;;;;;0.70;0.70;;;12.60;68.70;;;;;;5050996;28;20513;-60
2024/01/28 12:26:26;;;;;;;0.80;0.80;;;12.50;68.80;;;;;;5051194;28;20455;-61
2024/01/28 12:28:53;;;;;;;1.27;1.17;;;12.30;68.20;;;;;;5051105;28;20504;-61
2024/01/28 12:31:20;;;;;;;0.90;0.90;;;12.30;68.10;;;;;;5051249;28;20907;-61
2024/01/28 12:33:46;;;;;;;1.07;0.80;;;12.20;68.20;;;;;;5051219;28;20810;-61
2024/01/28 12:36:12;;;;;;;1.83;1.33;;;12.10;68.90;;;;;;5051287;28;20610;-61
2024/01/28 12:38:38;;;;;;;0.60;0.60;;;11.90;69.60;;;;;;5051224;28;20432;-61
2024/01/28 12:41:05;;;;;;;0.73;0.70;;;11.70;70.50;;;;;;5051113;28;20417;-60
2024/01/28 12:43:31;;;;;;;0.70;0.70;;;11.50;68.80;;;;;;5050757;28;20205;-60
2024/01/28 12:45:57;;;;;;;0.73;0.73;;;11.40;68.40;;;;;;5051161;28;20462;-60
2024/01/28 12:48:23;;;;;;;0.90;0.90;;;11.30;67.00;;;;;;5051075;28;20450;-60
2024/01/28 12:50:49;;;;;;;0.87;0.70;;;11.20;66.00;;;;;;5050881;28;20177;-61